AFL684 USSS-UDYZ
Flight info
| Callsign | AFL684 |
|---|---|
| Flight time | 3h 30m |
| Altitude | 34000 |
| Route | INLEB DCT MGR DCT SANIR DCT LAROZ/K0822F360 DCT IPLED DCT PINMU A955 LURIS DCT DF DCT OGEVI DCT TIBLO |
| Aircraft | A320/M-SDE2E3FGHIJ1RWY/LB1U1 |
Departure
| Time | 2026-04-27 20:27 |
|---|---|
| Airport | Koltsovo Airport (USSS) |
Arrival
| Time | 2026-04-27 23:58 |
|---|---|
| Airport | Zvartnots International Airport (UDYZ) |
| Time | Latitude | Longitude | Altitude | Speed | Heading |
|---|---|---|---|---|---|
| 2026-04-27 20:13 | 56.74933 | 60.80045 | 775 ft | 0 kts | 360° |
| 2026-04-27 20:18 | 56.74920 | 60.80045 | 774 ft | 3 kts | 355° |
| 2026-04-27 20:19 | 56.74899 | 60.80049 | 774 ft | 3 kts | 347° |
| 2026-04-27 20:19 | 56.74880 | 60.80059 | 774 ft | 3 kts | 336° |
| 2026-04-27 20:19 | 56.74863 | 60.80077 | 774 ft | 3 kts | 313° |
| 2026-04-27 20:19 | 56.74854 | 60.80100 | 774 ft | 1 kts | 272° |
| 2026-04-27 20:20 | 56.74854 | 60.80104 | 774 ft | 1 kts | 270° |
| 2026-04-27 20:20 | 56.74854 | 60.80105 | 774 ft | 0 kts | 270° |
| 2026-04-27 20:21 | 56.74854 | 60.80103 | 774 ft | 0 kts | 270° |
| 2026-04-27 20:22 | 56.74854 | 60.80032 | 774 ft | 11 kts | 270° |
| 2026-04-27 20:22 | 56.74854 | 60.79860 | 774 ft | 15 kts | 270° |
| 2026-04-27 20:22 | 56.74856 | 60.79675 | 774 ft | 14 kts | 273° |
| 2026-04-27 20:22 | 56.74857 | 60.79493 | 774 ft | 15 kts | 270° |
| 2026-04-27 20:23 | 56.74857 | 60.79253 | 774 ft | 20 kts | 270° |
| 2026-04-27 20:23 | 56.74857 | 60.78989 | 774 ft | 21 kts | 270° |
| 2026-04-27 20:23 | 56.74855 | 60.78714 | 774 ft | 22 kts | 270° |
| 2026-04-27 20:23 | 56.74855 | 60.78427 | 774 ft | 23 kts | 270° |
| 2026-04-27 20:24 | 56.74854 | 60.78215 | 774 ft | 12 kts | 261° |
| 2026-04-27 20:24 | 56.74795 | 60.78150 | 774 ft | 11 kts | 183° |
| 2026-04-27 20:24 | 56.74701 | 60.78149 | 774 ft | 14 kts | 180° |
| 2026-04-27 20:24 | 56.74592 | 60.78148 | 774 ft | 17 kts | 180° |
| 2026-04-27 20:25 | 56.74471 | 60.78148 | 774 ft | 18 kts | 180° |
| 2026-04-27 20:25 | 56.74355 | 60.78072 | 774 ft | 16 kts | 205° |
| 2026-04-27 20:25 | 56.74290 | 60.78015 | 774 ft | 5 kts | 205° |
| 2026-04-27 20:25 | 56.74254 | 60.77996 | 774 ft | 7 kts | 187° |
| 2026-04-27 20:26 | 56.74226 | 60.78034 | 774 ft | 5 kts | 97° |
| 2026-04-27 20:26 | 56.74226 | 60.78056 | 774 ft | 0 kts | 94° |
| 2026-04-27 20:26 | 56.74215 | 60.78335 | 774 ft | 57 kts | 94° |
| 2026-04-27 20:27 | 56.74170 | 60.79460 | 775 ft | 120 kts | 94° |
| 2026-04-27 20:27 | 56.74095 | 60.81323 | 817 ft | 164 kts | 95° |
| 2026-04-27 20:27 | 56.74021 | 60.83334 | 1496 ft | 160 kts | 98° |
| 2026-04-27 20:27 | 56.73927 | 60.85357 | 2194 ft | 161 kts | 104° |
| 2026-04-27 20:28 | 56.73826 | 60.87398 | 2719 ft | 163 kts | 105° |
| 2026-04-27 20:28 | 56.73730 | 60.89485 | 3189 ft | 167 kts | 105° |
| 2026-04-27 20:28 | 56.73624 | 60.91594 | 3660 ft | 168 kts | 106° |
| 2026-04-27 20:28 | 56.73551 | 60.93037 | 3952 ft | 172 kts | 105° |
| 2026-04-27 20:29 | 56.73390 | 60.96182 | 4175 ft | 203 kts | 104° |
| 2026-04-27 20:29 | 56.73301 | 60.98888 | 4381 ft | 231 kts | 91° |
| 2026-04-27 20:29 | 56.73989 | 61.01756 | 4580 ft | 269 kts | 49° |
| 2026-04-27 20:29 | 56.75627 | 61.03586 | 4971 ft | 289 kts | 12° |
| 2026-04-27 20:30 | 56.77628 | 61.03525 | 5570 ft | 290 kts | 339° |
| 2026-04-27 20:30 | 56.79429 | 61.02012 | 6455 ft | 284 kts | 319° |
| 2026-04-27 20:30 | 56.80788 | 60.99495 | 7235 ft | 277 kts | 297° |
| 2026-04-27 20:30 | 56.81507 | 60.96307 | 8035 ft | 270 kts | 275° |
| 2026-04-27 20:31 | 56.81511 | 60.92928 | 8795 ft | 267 kts | 256° |
| 2026-04-27 20:31 | 56.80861 | 60.89786 | 9584 ft | 267 kts | 237° |
| 2026-04-27 20:31 | 56.79653 | 60.87208 | 10272 ft | 272 kts | 224° |
| 2026-04-27 20:31 | 56.78227 | 60.84725 | 10491 ft | 295 kts | 224° |
| 2026-04-27 20:32 | 56.76695 | 60.82054 | 10779 ft | 312 kts | 224° |
| 2026-04-27 20:32 | 56.75111 | 60.79289 | 11402 ft | 318 kts | 224° |
| 2026-04-27 20:32 | 56.73503 | 60.76486 | 12087 ft | 321 kts | 224° |
| 2026-04-27 20:32 | 56.71884 | 60.73665 | 12797 ft | 324 kts | 224° |
| 2026-04-27 20:33 | 56.70802 | 60.71780 | 13261 ft | 326 kts | 224° |
| 2026-04-27 20:33 | 56.69158 | 60.68911 | 13944 ft | 329 kts | 224° |
| 2026-04-27 20:33 | 56.67501 | 60.66020 | 14545 ft | 332 kts | 224° |
| 2026-04-27 20:33 | 56.65828 | 60.63109 | 15167 ft | 334 kts | 223° |
| 2026-04-27 20:34 | 56.64142 | 60.60183 | 15779 ft | 336 kts | 223° |
| 2026-04-27 20:34 | 56.62442 | 60.57246 | 16391 ft | 338 kts | 223° |
| 2026-04-27 20:34 | 56.60731 | 60.54295 | 17005 ft | 340 kts | 223° |
| 2026-04-27 20:34 | 56.59007 | 60.51326 | 17610 ft | 342 kts | 223° |
| 2026-04-27 20:35 | 56.57276 | 60.48338 | 18228 ft | 345 kts | 223° |
| 2026-04-27 20:35 | 56.55538 | 60.45332 | 18755 ft | 347 kts | 222° |
| 2026-04-27 20:35 | 56.53782 | 60.42303 | 19286 ft | 349 kts | 222° |
| 2026-04-27 20:35 | 56.52018 | 60.39266 | 19826 ft | 350 kts | 222° |
| 2026-04-27 20:36 | 56.50247 | 60.36224 | 20366 ft | 352 kts | 222° |
| 2026-04-27 20:36 | 56.48464 | 60.33165 | 20908 ft | 354 kts | 222° |
| 2026-04-27 20:36 | 56.46671 | 60.30099 | 21447 ft | 356 kts | 222° |
| 2026-04-27 20:36 | 56.44867 | 60.27021 | 21972 ft | 358 kts | 222° |
| 2026-04-27 20:37 | 56.43051 | 60.23926 | 22494 ft | 359 kts | 222° |
| 2026-04-27 20:37 | 56.41118 | 60.21067 | 22999 ft | 360 kts | 213° |
| 2026-04-27 20:37 | 56.38916 | 60.18898 | 23481 ft | 363 kts | 203° |
| 2026-04-27 20:37 | 56.36510 | 60.17464 | 23891 ft | 365 kts | 197° |
| 2026-04-27 20:38 | 56.34054 | 60.16213 | 24279 ft | 367 kts | 198° |
| 2026-04-27 20:38 | 56.31593 | 60.14952 | 24664 ft | 369 kts | 198° |
| 2026-04-27 20:38 | 56.29120 | 60.13682 | 25029 ft | 371 kts | 198° |
| 2026-04-27 20:38 | 56.26631 | 60.12404 | 25390 ft | 373 kts | 198° |
| 2026-04-27 20:39 | 56.24129 | 60.11116 | 25737 ft | 374 kts | 198° |
| 2026-04-27 20:39 | 56.21621 | 60.09824 | 26085 ft | 376 kts | 198° |
| 2026-04-27 20:39 | 56.19100 | 60.08531 | 26430 ft | 378 kts | 198° |
| 2026-04-27 20:39 | 56.16564 | 60.07238 | 26753 ft | 380 kts | 198° |
| 2026-04-27 20:40 | 56.14016 | 60.05938 | 27091 ft | 382 kts | 198° |
| 2026-04-27 20:40 | 56.11456 | 60.04630 | 27425 ft | 383 kts | 198° |
| 2026-04-27 20:40 | 56.08883 | 60.03315 | 27739 ft | 385 kts | 198° |
| 2026-04-27 20:40 | 56.06304 | 60.01998 | 28053 ft | 387 kts | 198° |
| 2026-04-27 20:41 | 56.03706 | 60.00674 | 28366 ft | 389 kts | 198° |
| 2026-04-27 20:41 | 56.01099 | 59.99350 | 28670 ft | 390 kts | 198° |
| 2026-04-27 20:41 | 55.98482 | 59.98025 | 28967 ft | 392 kts | 198° |
| 2026-04-27 20:41 | 55.95852 | 59.96697 | 29254 ft | 394 kts | 198° |
| 2026-04-27 20:42 | 55.93242 | 59.95379 | 29522 ft | 395 kts | 198° |
| 2026-04-27 20:42 | 55.90587 | 59.94041 | 29784 ft | 397 kts | 198° |
| 2026-04-27 20:42 | 55.87924 | 59.92703 | 30047 ft | 399 kts | 198° |
| 2026-04-27 20:42 | 55.85248 | 59.91358 | 30249 ft | 400 kts | 198° |
| 2026-04-27 20:43 | 55.82563 | 59.90008 | 30458 ft | 402 kts | 198° |
| 2026-04-27 20:43 | 55.79869 | 59.88656 | 30689 ft | 403 kts | 198° |
| 2026-04-27 20:43 | 55.77136 | 59.87286 | 30946 ft | 402 kts | 198° |
| 2026-04-27 20:43 | 55.74483 | 59.85955 | 31235 ft | 401 kts | 198° |
| 2026-04-27 20:44 | 55.71766 | 59.84594 | 31522 ft | 400 kts | 198° |
| 2026-04-27 20:44 | 55.69123 | 59.83277 | 31797 ft | 399 kts | 198° |
| 2026-04-27 20:44 | 55.66449 | 59.81951 | 32077 ft | 399 kts | 198° |
| 2026-04-27 20:44 | 55.63781 | 59.80629 | 32345 ft | 398 kts | 198° |
| 2026-04-27 20:45 | 55.61117 | 59.79310 | 32622 ft | 397 kts | 198° |
| 2026-04-27 20:45 | 55.58457 | 59.77992 | 32896 ft | 397 kts | 198° |
| 2026-04-27 20:45 | 55.55797 | 59.76677 | 33170 ft | 396 kts | 198° |
| 2026-04-27 20:45 | 55.53144 | 59.75367 | 33444 ft | 396 kts | 198° |
| 2026-04-27 20:46 | 55.50495 | 59.74060 | 33719 ft | 395 kts | 198° |
| 2026-04-27 20:46 | 55.47844 | 59.72751 | 33956 ft | 395 kts | 198° |
| 2026-04-27 20:46 | 55.42600 | 59.70160 | 34001 ft | 389 kts | 198° |
| 2026-04-27 20:47 | 55.37402 | 59.67608 | 34001 ft | 387 kts | 198° |
| 2026-04-27 20:47 | 55.32213 | 59.65066 | 34003 ft | 387 kts | 198° |
| 2026-04-27 20:48 | 55.27067 | 59.62563 | 34006 ft | 387 kts | 198° |
| 2026-04-27 20:48 | 55.21874 | 59.60031 | 34003 ft | 386 kts | 198° |
| 2026-04-27 20:49 | 55.16696 | 59.57504 | 34004 ft | 386 kts | 198° |
| 2026-04-27 20:49 | 55.11520 | 59.54990 | 34011 ft | 386 kts | 198° |
| 2026-04-27 20:50 | 55.06337 | 59.52489 | 34012 ft | 386 kts | 198° |
| 2026-04-27 20:50 | 55.01160 | 59.49999 | 34013 ft | 386 kts | 198° |
| 2026-04-27 20:51 | 54.96164 | 59.47606 | 34016 ft | 385 kts | 198° |
| 2026-04-27 20:51 | 54.90996 | 59.45133 | 34020 ft | 385 kts | 198° |
| 2026-04-27 20:52 | 54.85827 | 59.42667 | 34017 ft | 385 kts | 198° |
| 2026-04-27 20:52 | 54.80660 | 59.40202 | 34019 ft | 385 kts | 198° |
| 2026-04-27 20:53 | 54.75498 | 59.37741 | 34012 ft | 385 kts | 198° |
| 2026-04-27 20:53 | 54.70333 | 59.35293 | 34010 ft | 385 kts | 198° |
| 2026-04-27 20:54 | 54.62576 | 59.31638 | 34009 ft | 385 kts | 197° |
| 2026-04-27 20:55 | 54.57401 | 59.29205 | 34008 ft | 386 kts | 197° |
| 2026-04-27 20:55 | 54.52224 | 59.26769 | 34008 ft | 386 kts | 197° |
| 2026-04-27 20:56 | 54.47039 | 59.24338 | 34004 ft | 386 kts | 197° |
| 2026-04-27 20:56 | 54.41855 | 59.21913 | 34007 ft | 386 kts | 197° |
| 2026-04-27 20:57 | 54.36665 | 59.19498 | 34010 ft | 386 kts | 197° |
| 2026-04-27 20:57 | 54.31477 | 59.17081 | 34008 ft | 387 kts | 197° |
| 2026-04-27 20:58 | 54.26284 | 59.14671 | 34008 ft | 387 kts | 197° |
| 2026-04-27 20:58 | 54.21085 | 59.12270 | 34012 ft | 387 kts | 197° |
| 2026-04-27 20:59 | 54.15886 | 59.09871 | 34013 ft | 387 kts | 197° |
| 2026-04-27 20:59 | 54.10686 | 59.07480 | 34003 ft | 387 kts | 197° |
| 2026-04-27 21:00 | 54.05481 | 59.05087 | 34007 ft | 387 kts | 197° |
| 2026-04-27 21:00 | 54.00277 | 59.02706 | 34009 ft | 387 kts | 197° |
| 2026-04-27 21:01 | 53.95066 | 59.00329 | 34008 ft | 388 kts | 197° |
| 2026-04-27 21:01 | 53.89854 | 58.97955 | 34008 ft | 388 kts | 197° |
| 2026-04-27 21:02 | 53.84638 | 58.95591 | 34009 ft | 388 kts | 197° |
| 2026-04-27 21:02 | 53.79419 | 58.93228 | 33999 ft | 388 kts | 197° |
| 2026-04-27 21:03 | 53.74195 | 58.90868 | 34000 ft | 389 kts | 197° |
| 2026-04-27 21:03 | 53.68969 | 58.88513 | 34000 ft | 389 kts | 197° |
| 2026-04-27 21:04 | 53.63741 | 58.86161 | 33995 ft | 389 kts | 197° |
| 2026-04-27 21:04 | 53.58506 | 58.83816 | 33984 ft | 389 kts | 197° |
| 2026-04-27 21:05 | 53.53272 | 58.81475 | 33984 ft | 389 kts | 197° |
| 2026-04-27 21:05 | 53.48032 | 58.79145 | 33980 ft | 390 kts | 197° |
| 2026-04-27 21:06 | 53.42792 | 58.76810 | 33981 ft | 390 kts | 197° |
| 2026-04-27 21:06 | 53.37560 | 58.74386 | 33981 ft | 390 kts | 199° |
| 2026-04-27 21:07 | 53.32395 | 58.71620 | 33983 ft | 390 kts | 200° |
| 2026-04-27 21:07 | 53.27236 | 58.68797 | 33985 ft | 390 kts | 200° |
| 2026-04-27 21:08 | 53.22063 | 58.66049 | 33992 ft | 390 kts | 199° |
| 2026-04-27 21:08 | 53.16876 | 58.63339 | 33994 ft | 391 kts | 199° |
| 2026-04-27 21:09 | 53.11691 | 58.60630 | 33995 ft | 391 kts | 199° |
| 2026-04-27 21:09 | 53.06502 | 58.57923 | 33995 ft | 391 kts | 199° |
| 2026-04-27 21:10 | 53.01313 | 58.55219 | 33999 ft | 391 kts | 199° |
| 2026-04-27 21:10 | 52.96156 | 58.52541 | 33994 ft | 391 kts | 199° |
| 2026-04-27 21:11 | 52.90930 | 58.49841 | 33998 ft | 391 kts | 199° |
| 2026-04-27 21:11 | 52.85732 | 58.47157 | 33997 ft | 391 kts | 199° |
| 2026-04-27 21:12 | 52.80567 | 58.44500 | 33997 ft | 391 kts | 199° |
| 2026-04-27 21:12 | 52.75365 | 58.41833 | 33994 ft | 391 kts | 199° |
| 2026-04-27 21:13 | 52.70164 | 58.39159 | 33996 ft | 392 kts | 199° |
| 2026-04-27 21:13 | 52.64960 | 58.36490 | 33997 ft | 392 kts | 199° |
| 2026-04-27 21:14 | 52.59754 | 58.33834 | 34000 ft | 392 kts | 199° |
| 2026-04-27 21:14 | 52.54539 | 58.31183 | 34001 ft | 392 kts | 199° |
| 2026-04-27 21:15 | 52.49326 | 58.28533 | 34002 ft | 392 kts | 199° |
| 2026-04-27 21:15 | 52.44107 | 58.25898 | 34002 ft | 392 kts | 199° |
| 2026-04-27 21:16 | 52.38888 | 58.23256 | 33999 ft | 393 kts | 199° |
| 2026-04-27 21:16 | 52.33668 | 58.20615 | 33996 ft | 393 kts | 199° |
| 2026-04-27 21:17 | 52.28443 | 58.17991 | 33993 ft | 393 kts | 199° |
| 2026-04-27 21:17 | 52.23214 | 58.15376 | 33997 ft | 393 kts | 199° |
| 2026-04-27 21:18 | 52.17983 | 58.12761 | 34000 ft | 393 kts | 199° |
| 2026-04-27 21:18 | 52.13596 | 58.10579 | 34000 ft | 393 kts | 199° |
| 2026-04-27 21:19 | 52.08362 | 58.07973 | 34003 ft | 393 kts | 199° |
| 2026-04-27 21:19 | 52.03163 | 58.05385 | 34005 ft | 393 kts | 199° |
| 2026-04-27 21:20 | 51.95311 | 58.01493 | 34002 ft | 393 kts | 199° |
| 2026-04-27 21:20 | 51.90075 | 57.98904 | 34004 ft | 394 kts | 199° |
| 2026-04-27 21:21 | 51.84832 | 57.96327 | 34003 ft | 394 kts | 199° |
| 2026-04-27 21:21 | 51.79589 | 57.93748 | 34003 ft | 394 kts | 199° |
| 2026-04-27 21:22 | 51.74343 | 57.91174 | 34003 ft | 394 kts | 199° |
| 2026-04-27 21:22 | 51.69098 | 57.88603 | 34002 ft | 394 kts | 199° |
| 2026-04-27 21:23 | 51.63844 | 57.86048 | 34007 ft | 394 kts | 199° |
| 2026-04-27 21:23 | 51.58594 | 57.83498 | 34003 ft | 394 kts | 199° |
| 2026-04-27 21:24 | 51.53346 | 57.80946 | 34005 ft | 394 kts | 199° |
| 2026-04-27 21:24 | 51.48093 | 57.78396 | 34005 ft | 394 kts | 199° |
| 2026-04-27 21:25 | 51.42836 | 57.75870 | 34009 ft | 394 kts | 199° |
| 2026-04-27 21:25 | 51.37582 | 57.73339 | 34012 ft | 394 kts | 199° |
| 2026-04-27 21:26 | 51.32329 | 57.70804 | 34011 ft | 394 kts | 199° |
| 2026-04-27 21:26 | 51.27070 | 57.68285 | 34009 ft | 394 kts | 199° |
| 2026-04-27 21:27 | 51.21815 | 57.65770 | 34014 ft | 394 kts | 199° |
| 2026-04-27 21:27 | 51.16563 | 57.63273 | 34009 ft | 394 kts | 199° |
| 2026-04-27 21:28 | 51.11343 | 57.60781 | 34011 ft | 394 kts | 199° |
| 2026-04-27 21:28 | 51.06091 | 57.58280 | 34008 ft | 394 kts | 199° |
| 2026-04-27 21:29 | 51.00829 | 57.55785 | 34008 ft | 395 kts | 199° |
| 2026-04-27 21:29 | 50.95565 | 57.53301 | 34009 ft | 395 kts | 199° |
| 2026-04-27 21:30 | 50.90296 | 57.50811 | 34007 ft | 395 kts | 199° |
| 2026-04-27 21:30 | 50.85333 | 57.47270 | 34006 ft | 391 kts | 215° |
| 2026-04-27 21:31 | 50.80781 | 57.42547 | 34009 ft | 391 kts | 214° |
| 2026-04-27 21:31 | 50.76210 | 57.37855 | 34006 ft | 392 kts | 214° |
| 2026-04-27 21:32 | 50.71638 | 57.33174 | 34014 ft | 392 kts | 214° |
| 2026-04-27 21:32 | 50.67060 | 57.28482 | 34013 ft | 392 kts | 214° |
| 2026-04-27 21:33 | 50.62476 | 57.23790 | 34002 ft | 392 kts | 214° |
| 2026-04-27 21:33 | 50.57902 | 57.19119 | 34014 ft | 392 kts | 214° |
| 2026-04-27 21:34 | 50.53321 | 57.14455 | 34016 ft | 392 kts | 214° |
| 2026-04-27 21:34 | 50.48765 | 57.09834 | 34025 ft | 392 kts | 214° |
| 2026-04-27 21:35 | 50.44178 | 57.05195 | 34035 ft | 392 kts | 214° |
| 2026-04-27 21:35 | 50.39598 | 57.00560 | 34039 ft | 392 kts | 214° |
| 2026-04-27 21:36 | 50.35014 | 56.95944 | 34029 ft | 392 kts | 214° |
| 2026-04-27 21:36 | 50.30429 | 56.91336 | 34037 ft | 391 kts | 214° |
| 2026-04-27 21:37 | 50.25848 | 56.86741 | 34030 ft | 391 kts | 214° |
| 2026-04-27 21:37 | 50.21261 | 56.82145 | 34026 ft | 392 kts | 214° |
| 2026-04-27 21:38 | 50.16669 | 56.77562 | 34025 ft | 392 kts | 214° |
| 2026-04-27 21:38 | 50.12074 | 56.72987 | 34015 ft | 392 kts | 214° |
| 2026-04-27 21:39 | 50.07483 | 56.68411 | 34011 ft | 392 kts | 214° |
| 2026-04-27 21:39 | 50.02887 | 56.63851 | 34011 ft | 392 kts | 214° |
| 2026-04-27 21:40 | 49.98290 | 56.59306 | 34014 ft | 392 kts | 214° |
| 2026-04-27 21:40 | 49.93692 | 56.54760 | 34017 ft | 392 kts | 214° |
| 2026-04-27 21:41 | 49.89121 | 56.50259 | 34015 ft | 392 kts | 214° |
| 2026-04-27 21:41 | 49.84521 | 56.45738 | 34017 ft | 392 kts | 214° |
| 2026-04-27 21:42 | 49.79918 | 56.41228 | 34016 ft | 391 kts | 214° |
| 2026-04-27 21:42 | 49.75311 | 56.36725 | 34026 ft | 392 kts | 214° |
| 2026-04-27 21:43 | 49.70705 | 56.32234 | 34024 ft | 392 kts | 214° |
| 2026-04-27 21:43 | 49.66095 | 56.27745 | 34024 ft | 392 kts | 214° |
| 2026-04-27 21:44 | 49.61483 | 56.23266 | 34023 ft | 392 kts | 214° |
| 2026-04-27 21:44 | 49.56868 | 56.18788 | 34020 ft | 392 kts | 214° |
| 2026-04-27 21:45 | 49.52251 | 56.14325 | 34020 ft | 392 kts | 214° |
| 2026-04-27 21:45 | 49.47637 | 56.09863 | 34028 ft | 392 kts | 214° |
| 2026-04-27 21:46 | 49.43013 | 56.05403 | 34027 ft | 392 kts | 214° |
| 2026-04-27 21:46 | 49.38388 | 56.00967 | 34027 ft | 392 kts | 214° |
| 2026-04-27 21:47 | 49.33763 | 55.96537 | 34030 ft | 392 kts | 214° |
| 2026-04-27 21:47 | 49.29140 | 55.92115 | 34026 ft | 392 kts | 214° |
| 2026-04-27 21:48 | 49.24519 | 55.87707 | 34029 ft | 391 kts | 214° |
| 2026-04-27 21:48 | 49.19896 | 55.83307 | 34031 ft | 391 kts | 214° |
| 2026-04-27 21:49 | 49.15277 | 55.78919 | 34032 ft | 391 kts | 214° |
| 2026-04-27 21:49 | 49.10655 | 55.74538 | 34031 ft | 391 kts | 214° |
| 2026-04-27 21:50 | 49.06028 | 55.70167 | 34036 ft | 391 kts | 214° |
| 2026-04-27 21:50 | 49.01404 | 55.65806 | 34033 ft | 391 kts | 214° |
| 2026-04-27 21:51 | 48.96783 | 55.61445 | 34033 ft | 391 kts | 214° |
| 2026-04-27 21:51 | 48.92153 | 55.57107 | 34028 ft | 391 kts | 214° |
| 2026-04-27 21:52 | 48.87522 | 55.52774 | 34026 ft | 391 kts | 214° |
| 2026-04-27 21:52 | 48.82893 | 55.48441 | 34023 ft | 391 kts | 214° |
| 2026-04-27 21:53 | 48.78263 | 55.44108 | 34029 ft | 391 kts | 214° |
| 2026-04-27 21:53 | 48.73654 | 55.39818 | 34029 ft | 391 kts | 214° |
| 2026-04-27 21:54 | 48.69017 | 55.35504 | 34034 ft | 391 kts | 214° |
| 2026-04-27 21:54 | 48.64379 | 55.31204 | 34032 ft | 391 kts | 214° |
| 2026-04-27 21:55 | 48.59742 | 55.26911 | 34033 ft | 391 kts | 214° |
| 2026-04-27 21:55 | 48.55106 | 55.22619 | 34029 ft | 391 kts | 214° |
| 2026-04-27 21:56 | 48.48150 | 55.16215 | 34028 ft | 391 kts | 213° |
| 2026-04-27 21:57 | 48.43499 | 55.11960 | 34032 ft | 391 kts | 213° |
| 2026-04-27 21:57 | 48.38850 | 55.07704 | 34031 ft | 391 kts | 214° |
| 2026-04-27 21:58 | 48.34201 | 55.03447 | 34034 ft | 391 kts | 213° |
| 2026-04-27 21:58 | 48.29545 | 54.99213 | 34034 ft | 391 kts | 213° |
| 2026-04-27 21:59 | 48.24891 | 54.94978 | 34033 ft | 391 kts | 213° |
| 2026-04-27 21:59 | 48.20221 | 54.90723 | 34183 ft | 396 kts | 213° |
| 2026-04-27 21:59 | 48.17863 | 54.88576 | 34373 ft | 397 kts | 213° |
| 2026-04-27 22:00 | 48.15505 | 54.86435 | 34587 ft | 397 kts | 213° |
| 2026-04-27 22:00 | 48.13143 | 54.84299 | 34803 ft | 397 kts | 213° |
| 2026-04-27 22:00 | 48.10781 | 54.82168 | 35019 ft | 396 kts | 213° |
| 2026-04-27 22:00 | 48.08421 | 54.80040 | 35241 ft | 396 kts | 213° |
| 2026-04-27 22:01 | 48.06060 | 54.77916 | 35463 ft | 396 kts | 213° |
| 2026-04-27 22:01 | 48.03734 | 54.75827 | 35682 ft | 395 kts | 213° |
| 2026-04-27 22:01 | 48.01380 | 54.73711 | 35907 ft | 395 kts | 213° |
| 2026-04-27 22:01 | 47.99023 | 54.71593 | 36016 ft | 395 kts | 213° |
| 2026-04-27 22:02 | 47.96669 | 54.69476 | 36050 ft | 395 kts | 213° |
| 2026-04-27 22:02 | 47.91960 | 54.65253 | 36038 ft | 395 kts | 213° |
| 2026-04-27 22:03 | 47.87250 | 54.61032 | 36045 ft | 395 kts | 213° |
| 2026-04-27 22:03 | 47.82541 | 54.56829 | 36047 ft | 394 kts | 213° |
| 2026-04-27 22:04 | 47.77837 | 54.52631 | 36044 ft | 394 kts | 213° |
| 2026-04-27 22:04 | 47.73135 | 54.48449 | 36049 ft | 394 kts | 213° |
| 2026-04-27 22:05 | 47.68415 | 54.44271 | 36025 ft | 395 kts | 213° |
| 2026-04-27 22:05 | 47.63708 | 54.40109 | 36045 ft | 394 kts | 213° |
| 2026-04-27 22:06 | 47.59005 | 54.35950 | 36046 ft | 394 kts | 213° |
| 2026-04-27 22:06 | 47.54299 | 54.31812 | 36044 ft | 393 kts | 213° |
| 2026-04-27 22:07 | 47.49594 | 54.27677 | 36043 ft | 393 kts | 213° |
| 2026-04-27 22:07 | 47.45683 | 54.24233 | 36042 ft | 394 kts | 213° |
| 2026-04-27 22:08 | 47.40211 | 54.19437 | 36042 ft | 394 kts | 213° |
| 2026-04-27 22:08 | 47.36267 | 54.15988 | 36043 ft | 393 kts | 213° |
| 2026-04-27 22:09 | 47.31559 | 54.11874 | 36043 ft | 393 kts | 213° |
| 2026-04-27 22:09 | 47.26850 | 54.07767 | 36048 ft | 393 kts | 213° |
| 2026-04-27 22:10 | 47.22172 | 54.03706 | 36048 ft | 393 kts | 213° |
| 2026-04-27 22:10 | 47.17458 | 53.99629 | 36047 ft | 393 kts | 213° |
| 2026-04-27 22:11 | 47.12747 | 53.95548 | 36045 ft | 393 kts | 213° |
| 2026-04-27 22:11 | 47.08037 | 53.91476 | 36044 ft | 393 kts | 213° |
| 2026-04-27 22:12 | 47.03325 | 53.87413 | 36047 ft | 393 kts | 213° |
| 2026-04-27 22:12 | 46.98609 | 53.83362 | 36044 ft | 393 kts | 213° |
| 2026-04-27 22:13 | 46.93889 | 53.79318 | 36047 ft | 393 kts | 213° |
| 2026-04-27 22:13 | 46.89170 | 53.75282 | 36045 ft | 393 kts | 213° |
| 2026-04-27 22:14 | 46.84487 | 53.71278 | 36045 ft | 393 kts | 213° |
| 2026-04-27 22:14 | 46.79774 | 53.67245 | 36049 ft | 393 kts | 213° |
| 2026-04-27 22:15 | 46.75022 | 53.63200 | 36049 ft | 393 kts | 213° |
| 2026-04-27 22:15 | 46.70332 | 53.59218 | 36047 ft | 393 kts | 213° |
| 2026-04-27 22:16 | 46.65570 | 53.55197 | 36045 ft | 393 kts | 213° |
| 2026-04-27 22:16 | 46.60872 | 53.51226 | 36047 ft | 393 kts | 213° |
| 2026-04-27 22:17 | 46.56111 | 53.47203 | 36044 ft | 393 kts | 213° |
| 2026-04-27 22:17 | 46.51413 | 53.43242 | 36043 ft | 393 kts | 213° |
| 2026-04-27 22:18 | 46.46679 | 53.39260 | 36041 ft | 393 kts | 213° |
| 2026-04-27 22:18 | 46.41940 | 53.35278 | 36046 ft | 394 kts | 213° |
| 2026-04-27 22:19 | 46.37200 | 53.31315 | 36051 ft | 394 kts | 213° |
| 2026-04-27 22:19 | 46.32451 | 53.27352 | 36049 ft | 394 kts | 213° |
| 2026-04-27 22:20 | 46.27702 | 53.23397 | 36045 ft | 394 kts | 213° |
| 2026-04-27 22:20 | 46.22951 | 53.19438 | 36043 ft | 394 kts | 213° |
| 2026-04-27 22:21 | 46.18193 | 53.15490 | 36042 ft | 395 kts | 213° |
| 2026-04-27 22:21 | 46.13433 | 53.11536 | 36041 ft | 395 kts | 213° |
| 2026-04-27 22:22 | 46.08668 | 53.07585 | 36042 ft | 395 kts | 212° |
| 2026-04-27 22:22 | 46.03895 | 53.03648 | 36040 ft | 395 kts | 212° |
| 2026-04-27 22:23 | 45.99117 | 52.99729 | 36041 ft | 396 kts | 212° |
| 2026-04-27 22:23 | 45.94338 | 52.95797 | 36040 ft | 396 kts | 212° |
| 2026-04-27 22:24 | 45.89556 | 52.91866 | 36042 ft | 396 kts | 212° |
| 2026-04-27 22:24 | 45.84763 | 52.87942 | 36040 ft | 397 kts | 212° |
| 2026-04-27 22:25 | 45.79969 | 52.84019 | 36043 ft | 397 kts | 212° |
| 2026-04-27 22:25 | 45.75173 | 52.80103 | 36043 ft | 397 kts | 212° |
| 2026-04-27 22:26 | 45.70366 | 52.76195 | 36044 ft | 398 kts | 212° |
| 2026-04-27 22:26 | 45.65553 | 52.72283 | 36043 ft | 398 kts | 212° |
| 2026-04-27 22:27 | 45.60741 | 52.68379 | 36043 ft | 398 kts | 212° |
| 2026-04-27 22:27 | 45.55923 | 52.64472 | 36041 ft | 398 kts | 212° |
| 2026-04-27 22:28 | 45.51096 | 52.60578 | 36041 ft | 399 kts | 212° |
| 2026-04-27 22:28 | 45.46297 | 52.56713 | 36040 ft | 399 kts | 212° |
| 2026-04-27 22:29 | 45.41460 | 52.52831 | 36042 ft | 399 kts | 212° |
| 2026-04-27 22:29 | 45.36617 | 52.48945 | 36040 ft | 400 kts | 212° |
| 2026-04-27 22:30 | 45.31776 | 52.45055 | 36039 ft | 400 kts | 212° |
| 2026-04-27 22:30 | 45.26928 | 52.41175 | 36044 ft | 400 kts | 212° |
| 2026-04-27 22:31 | 45.22072 | 52.37301 | 36041 ft | 400 kts | 212° |
| 2026-04-27 22:31 | 45.17330 | 52.33200 | 36037 ft | 398 kts | 221° |
| 2026-04-27 22:32 | 45.13544 | 52.27552 | 36044 ft | 396 kts | 231° |
| 2026-04-27 22:32 | 45.10002 | 52.21587 | 36049 ft | 396 kts | 231° |
| 2026-04-27 22:33 | 45.06446 | 52.15629 | 36050 ft | 396 kts | 231° |
| 2026-04-27 22:33 | 45.02878 | 52.09690 | 36040 ft | 396 kts | 231° |
| 2026-04-27 22:34 | 44.99306 | 52.03750 | 36053 ft | 397 kts | 231° |
| 2026-04-27 22:34 | 44.95734 | 51.97811 | 36051 ft | 397 kts | 231° |
| 2026-04-27 22:35 | 44.92161 | 51.91877 | 36053 ft | 397 kts | 231° |
| 2026-04-27 22:35 | 44.88583 | 51.85953 | 36057 ft | 397 kts | 231° |
| 2026-04-27 22:36 | 44.85023 | 51.80079 | 36060 ft | 397 kts | 231° |
| 2026-04-27 22:36 | 44.81434 | 51.74169 | 36061 ft | 397 kts | 231° |
| 2026-04-27 22:37 | 44.77842 | 51.68266 | 36059 ft | 397 kts | 231° |
| 2026-04-27 22:37 | 44.74247 | 51.62372 | 36063 ft | 397 kts | 230° |
| 2026-04-27 22:38 | 44.70648 | 51.56487 | 36069 ft | 397 kts | 231° |
| 2026-04-27 22:38 | 44.67047 | 51.50602 | 36069 ft | 397 kts | 230° |
| 2026-04-27 22:39 | 44.63441 | 51.44723 | 36073 ft | 397 kts | 230° |
| 2026-04-27 22:39 | 44.59831 | 51.38853 | 36070 ft | 397 kts | 230° |
| 2026-04-27 22:40 | 44.56221 | 51.32995 | 36071 ft | 397 kts | 230° |
| 2026-04-27 22:40 | 44.52609 | 51.27136 | 36071 ft | 397 kts | 230° |
| 2026-04-27 22:41 | 44.48990 | 51.21279 | 36073 ft | 397 kts | 230° |
| 2026-04-27 22:41 | 44.45368 | 51.15433 | 36074 ft | 398 kts | 230° |
| 2026-04-27 22:42 | 44.41763 | 51.09627 | 36075 ft | 398 kts | 230° |
| 2026-04-27 22:42 | 44.38130 | 51.03793 | 36078 ft | 398 kts | 230° |
| 2026-04-27 22:43 | 44.34496 | 50.97967 | 36081 ft | 398 kts | 230° |
| 2026-04-27 22:43 | 44.30859 | 50.92137 | 36080 ft | 398 kts | 230° |
| 2026-04-27 22:44 | 44.27213 | 50.86319 | 36079 ft | 398 kts | 230° |
| 2026-04-27 22:44 | 44.23557 | 50.80513 | 36081 ft | 398 kts | 230° |
| 2026-04-27 22:45 | 44.19904 | 50.74706 | 36082 ft | 398 kts | 230° |
| 2026-04-27 22:45 | 44.16247 | 50.68903 | 36084 ft | 398 kts | 230° |
| 2026-04-27 22:46 | 44.12592 | 50.63105 | 36087 ft | 398 kts | 230° |
| 2026-04-27 22:46 | 44.08933 | 50.57313 | 36090 ft | 398 kts | 230° |
| 2026-04-27 22:47 | 44.05265 | 50.51540 | 36092 ft | 398 kts | 230° |
| 2026-04-27 22:47 | 44.01600 | 50.45763 | 36097 ft | 398 kts | 230° |
| 2026-04-27 22:48 | 43.97962 | 50.40034 | 36097 ft | 398 kts | 230° |
| 2026-04-27 22:48 | 43.94291 | 50.34281 | 36098 ft | 398 kts | 230° |
| 2026-04-27 22:49 | 43.90593 | 50.28496 | 36097 ft | 398 kts | 230° |
| 2026-04-27 22:49 | 43.86941 | 50.22807 | 36101 ft | 398 kts | 230° |
| 2026-04-27 22:50 | 43.83266 | 50.17084 | 36103 ft | 397 kts | 230° |
| 2026-04-27 22:50 | 43.79591 | 50.11362 | 36110 ft | 397 kts | 230° |
| 2026-04-27 22:51 | 43.75916 | 50.05661 | 36113 ft | 397 kts | 229° |
| 2026-04-27 22:51 | 43.72240 | 49.99958 | 36112 ft | 397 kts | 229° |
| 2026-04-27 22:52 | 43.68563 | 49.94269 | 36112 ft | 397 kts | 229° |
| 2026-04-27 22:52 | 43.64883 | 49.88591 | 36120 ft | 397 kts | 229° |
| 2026-04-27 22:53 | 43.61201 | 49.82919 | 36123 ft | 396 kts | 229° |
| 2026-04-27 22:53 | 43.57513 | 49.77259 | 36130 ft | 397 kts | 229° |
| 2026-04-27 22:54 | 43.53826 | 49.71607 | 36128 ft | 396 kts | 229° |
| 2026-04-27 22:54 | 43.50158 | 49.66002 | 36134 ft | 396 kts | 229° |
| 2026-04-27 22:55 | 43.46443 | 49.60330 | 36133 ft | 396 kts | 229° |
| 2026-04-27 22:55 | 43.42774 | 49.54732 | 36134 ft | 396 kts | 229° |
| 2026-04-27 22:56 | 43.39411 | 49.48773 | 36132 ft | 394 kts | 242° |
| 2026-04-27 22:56 | 43.37231 | 49.41858 | 36133 ft | 395 kts | 247° |
| 2026-04-27 22:57 | 43.35139 | 49.34889 | 36139 ft | 395 kts | 246° |
| 2026-04-27 22:57 | 43.33036 | 49.27920 | 36141 ft | 395 kts | 246° |
| 2026-04-27 22:58 | 43.30929 | 49.20956 | 36145 ft | 395 kts | 246° |
| 2026-04-27 22:58 | 43.28819 | 49.13994 | 36147 ft | 395 kts | 246° |
| 2026-04-27 22:59 | 43.27066 | 49.08213 | 36150 ft | 395 kts | 246° |
| 2026-04-27 22:59 | 43.24950 | 49.01259 | 36154 ft | 395 kts | 246° |
| 2026-04-27 23:00 | 43.21757 | 48.90839 | 36158 ft | 395 kts | 246° |
| 2026-04-27 23:00 | 43.19628 | 48.83901 | 36158 ft | 395 kts | 246° |
| 2026-04-27 23:01 | 43.17493 | 48.76966 | 36165 ft | 395 kts | 246° |
| 2026-04-27 23:01 | 43.15354 | 48.70036 | 36168 ft | 395 kts | 246° |
| 2026-04-27 23:02 | 43.13219 | 48.63104 | 36168 ft | 395 kts | 246° |
| 2026-04-27 23:02 | 43.11079 | 48.56175 | 36171 ft | 395 kts | 246° |
| 2026-04-27 23:03 | 43.08926 | 48.49259 | 36174 ft | 395 kts | 245° |
| 2026-04-27 23:03 | 43.06767 | 48.42344 | 36176 ft | 395 kts | 245° |
| 2026-04-27 23:04 | 43.04606 | 48.35426 | 36176 ft | 395 kts | 245° |
| 2026-04-27 23:04 | 43.02447 | 48.28519 | 36183 ft | 395 kts | 245° |
| 2026-04-27 23:05 | 43.00280 | 48.21611 | 36179 ft | 396 kts | 245° |
| 2026-04-27 23:05 | 42.98103 | 48.14709 | 36186 ft | 396 kts | 245° |
| 2026-04-27 23:06 | 42.95936 | 48.07850 | 36194 ft | 396 kts | 245° |
| 2026-04-27 23:06 | 42.93756 | 48.00942 | 36198 ft | 396 kts | 245° |
| 2026-04-27 23:07 | 42.91567 | 47.94041 | 36205 ft | 397 kts | 245° |
| 2026-04-27 23:07 | 42.89370 | 47.87135 | 36209 ft | 397 kts | 245° |
| 2026-04-27 23:08 | 42.87165 | 47.80231 | 36211 ft | 397 kts | 245° |
| 2026-04-27 23:08 | 42.84955 | 47.73327 | 36208 ft | 398 kts | 245° |
| 2026-04-27 23:09 | 42.82741 | 47.66417 | 36209 ft | 398 kts | 245° |
| 2026-04-27 23:09 | 42.81061 | 47.59228 | 36208 ft | 400 kts | 252° |
| 2026-04-27 23:10 | 42.79582 | 47.51926 | 36210 ft | 400 kts | 252° |
| 2026-04-27 23:10 | 42.78098 | 47.44618 | 36210 ft | 401 kts | 252° |
| 2026-04-27 23:11 | 42.76602 | 47.37306 | 36217 ft | 401 kts | 252° |
| 2026-04-27 23:11 | 42.75103 | 47.29981 | 36221 ft | 402 kts | 252° |
| 2026-04-27 23:12 | 42.73596 | 47.22659 | 36231 ft | 402 kts | 252° |
| 2026-04-27 23:12 | 42.72088 | 47.15387 | 36231 ft | 402 kts | 252° |
| 2026-04-27 23:13 | 42.70570 | 47.08074 | 36229 ft | 402 kts | 252° |
| 2026-04-27 23:13 | 42.69044 | 47.00767 | 36227 ft | 402 kts | 252° |
| 2026-04-27 23:14 | 42.67516 | 46.93453 | 36223 ft | 402 kts | 252° |
| 2026-04-27 23:14 | 42.65984 | 46.86149 | 36214 ft | 402 kts | 252° |
| 2026-04-27 23:15 | 42.64439 | 46.78844 | 36207 ft | 402 kts | 252° |
| 2026-04-27 23:15 | 42.62895 | 46.71543 | 36205 ft | 403 kts | 252° |
| 2026-04-27 23:16 | 42.61342 | 46.64232 | 36195 ft | 403 kts | 252° |
| 2026-04-27 23:16 | 42.59788 | 46.56928 | 36190 ft | 403 kts | 252° |
| 2026-04-27 23:17 | 42.58216 | 46.49626 | 36181 ft | 403 kts | 252° |
| 2026-04-27 23:17 | 42.56643 | 46.42316 | 36172 ft | 404 kts | 252° |
| 2026-04-27 23:18 | 42.55074 | 46.35002 | 36170 ft | 404 kts | 252° |
| 2026-04-27 23:18 | 42.53496 | 46.27698 | 36159 ft | 404 kts | 252° |
| 2026-04-27 23:19 | 42.51911 | 46.20386 | 36160 ft | 404 kts | 251° |
| 2026-04-27 23:19 | 42.50315 | 46.13082 | 36155 ft | 404 kts | 251° |
| 2026-04-27 23:20 | 42.48720 | 46.05771 | 36145 ft | 405 kts | 251° |
| 2026-04-27 23:20 | 42.47122 | 45.98455 | 36134 ft | 404 kts | 251° |
| 2026-04-27 23:21 | 42.45516 | 45.91146 | 36138 ft | 405 kts | 251° |
| 2026-04-27 23:21 | 42.43905 | 45.83841 | 36128 ft | 405 kts | 251° |
| 2026-04-27 23:22 | 42.42170 | 45.76598 | 36120 ft | 404 kts | 244° |
| 2026-04-27 23:22 | 42.39512 | 45.69984 | 36100 ft | 403 kts | 240° |
| 2026-04-27 23:23 | 42.36772 | 45.63372 | 36085 ft | 403 kts | 240° |
| 2026-04-27 23:23 | 42.34030 | 45.56756 | 36072 ft | 403 kts | 240° |
| 2026-04-27 23:24 | 42.31282 | 45.50144 | 36064 ft | 404 kts | 240° |
| 2026-04-27 23:24 | 42.28522 | 45.43528 | 36060 ft | 404 kts | 240° |
| 2026-04-27 23:25 | 42.25758 | 45.36904 | 36068 ft | 405 kts | 240° |
| 2026-04-27 23:25 | 42.22984 | 45.30290 | 36068 ft | 405 kts | 240° |
| 2026-04-27 23:26 | 42.20223 | 45.23716 | 36076 ft | 406 kts | 240° |
| 2026-04-27 23:26 | 42.17442 | 45.17096 | 36078 ft | 406 kts | 240° |
| 2026-04-27 23:27 | 42.14648 | 45.10475 | 36088 ft | 407 kts | 240° |
| 2026-04-27 23:27 | 42.11849 | 45.03855 | 36103 ft | 407 kts | 240° |
| 2026-04-27 23:28 | 42.09039 | 44.97230 | 36106 ft | 407 kts | 240° |
| 2026-04-27 23:28 | 42.06227 | 44.90607 | 36108 ft | 408 kts | 240° |
| 2026-04-27 23:29 | 42.03412 | 44.83980 | 36114 ft | 408 kts | 240° |
| 2026-04-27 23:29 | 42.00583 | 44.77354 | 36124 ft | 409 kts | 240° |
| 2026-04-27 23:30 | 41.97746 | 44.70731 | 36130 ft | 409 kts | 240° |
| 2026-04-27 23:30 | 41.94909 | 44.64109 | 36135 ft | 409 kts | 240° |
| 2026-04-27 23:31 | 41.91907 | 44.57625 | 36139 ft | 409 kts | 231° |
| 2026-04-27 23:31 | 41.87687 | 44.52499 | 36136 ft | 411 kts | 218° |
| 2026-04-27 23:32 | 41.83135 | 44.47933 | 36132 ft | 412 kts | 218° |
| 2026-04-27 23:32 | 41.78545 | 44.43322 | 36130 ft | 412 kts | 218° |
| 2026-04-27 23:33 | 41.73924 | 44.38684 | 36177 ft | 411 kts | 219° |
| 2026-04-27 23:33 | 41.69348 | 44.34094 | 36147 ft | 411 kts | 219° |
| 2026-04-27 23:34 | 41.64761 | 44.29498 | 36142 ft | 412 kts | 219° |
| 2026-04-27 23:34 | 41.60165 | 44.24897 | 36132 ft | 414 kts | 219° |
| 2026-04-27 23:35 | 41.55553 | 44.20284 | 36118 ft | 415 kts | 218° |
| 2026-04-27 23:35 | 41.50939 | 44.15691 | 36122 ft | 417 kts | 218° |
| 2026-04-27 23:36 | 41.46280 | 44.11067 | 36127 ft | 418 kts | 218° |
| 2026-04-27 23:36 | 41.41614 | 44.06441 | 36132 ft | 418 kts | 218° |
| 2026-04-27 23:37 | 41.36941 | 44.01812 | 36141 ft | 419 kts | 218° |
| 2026-04-27 23:37 | 41.32259 | 43.97185 | 36074 ft | 420 kts | 218° |
| 2026-04-27 23:38 | 41.29914 | 43.94868 | 35821 ft | 420 kts | 218° |
| 2026-04-27 23:38 | 41.27565 | 43.92547 | 35574 ft | 421 kts | 218° |
| 2026-04-27 23:38 | 41.25211 | 43.90229 | 35331 ft | 422 kts | 218° |
| 2026-04-27 23:38 | 41.22853 | 43.87912 | 34979 ft | 421 kts | 218° |
| 2026-04-27 23:39 | 41.20502 | 43.85606 | 34442 ft | 418 kts | 218° |
| 2026-04-27 23:39 | 41.18166 | 43.83317 | 33887 ft | 416 kts | 218° |
| 2026-04-27 23:39 | 41.15798 | 43.81145 | 33366 ft | 413 kts | 210° |
| 2026-04-27 23:39 | 41.13148 | 43.79690 | 32731 ft | 415 kts | 195° |
| 2026-04-27 23:40 | 41.10287 | 43.79195 | 32105 ft | 417 kts | 180° |
| 2026-04-27 23:40 | 41.07396 | 43.79522 | 31484 ft | 417 kts | 175° |
| 2026-04-27 23:40 | 41.04509 | 43.79944 | 30867 ft | 417 kts | 175° |
| 2026-04-27 23:40 | 41.01630 | 43.80360 | 30255 ft | 416 kts | 175° |
| 2026-04-27 23:41 | 40.98753 | 43.80768 | 29602 ft | 415 kts | 175° |
| 2026-04-27 23:41 | 40.95894 | 43.81171 | 29030 ft | 412 kts | 175° |
| 2026-04-27 23:41 | 40.93056 | 43.81569 | 28461 ft | 408 kts | 175° |
| 2026-04-27 23:41 | 40.90242 | 43.81962 | 27915 ft | 405 kts | 175° |
| 2026-04-27 23:42 | 40.87481 | 43.82346 | 27386 ft | 402 kts | 175° |
| 2026-04-27 23:42 | 40.84678 | 43.82736 | 26865 ft | 399 kts | 175° |
| 2026-04-27 23:42 | 40.81921 | 43.83119 | 26362 ft | 396 kts | 175° |
| 2026-04-27 23:42 | 40.79184 | 43.83502 | 25830 ft | 395 kts | 175° |
| 2026-04-27 23:43 | 40.76460 | 43.83886 | 25315 ft | 393 kts | 175° |
| 2026-04-27 23:43 | 40.73751 | 43.84261 | 24766 ft | 392 kts | 176° |
| 2026-04-27 23:43 | 40.71066 | 43.84189 | 24092 ft | 388 kts | 191° |
| 2026-04-27 23:43 | 40.68457 | 43.83364 | 23092 ft | 385 kts | 195° |
| 2026-04-27 23:44 | 40.65881 | 43.82466 | 22120 ft | 381 kts | 196° |
| 2026-04-27 23:44 | 40.63335 | 43.81566 | 21228 ft | 376 kts | 196° |
| 2026-04-27 23:44 | 40.60824 | 43.80680 | 20365 ft | 372 kts | 196° |
| 2026-04-27 23:44 | 40.58341 | 43.79808 | 19544 ft | 367 kts | 196° |
| 2026-04-27 23:45 | 40.55915 | 43.78961 | 19046 ft | 354 kts | 196° |
| 2026-04-27 23:45 | 40.53582 | 43.78151 | 18611 ft | 340 kts | 196° |
| 2026-04-27 23:45 | 40.51338 | 43.77374 | 18166 ft | 328 kts | 196° |
| 2026-04-27 23:45 | 40.49142 | 43.76611 | 17746 ft | 326 kts | 196° |
| 2026-04-27 23:46 | 40.46957 | 43.75852 | 17284 ft | 324 kts | 196° |
| 2026-04-27 23:46 | 40.44779 | 43.75098 | 16559 ft | 322 kts | 196° |
| 2026-04-27 23:46 | 40.42634 | 43.74359 | 15946 ft | 316 kts | 195° |
| 2026-04-27 23:46 | 40.40519 | 43.73632 | 15322 ft | 312 kts | 195° |
| 2026-04-27 23:47 | 40.38399 | 43.73201 | 14800 ft | 305 kts | 182° |
| 2026-04-27 23:47 | 40.36295 | 43.73391 | 14402 ft | 304 kts | 173° |
| 2026-04-27 23:47 | 40.34237 | 43.73794 | 14015 ft | 305 kts | 173° |
| 2026-04-27 23:47 | 40.32105 | 43.74209 | 13641 ft | 303 kts | 173° |
| 2026-04-27 23:48 | 40.30024 | 43.74614 | 13266 ft | 301 kts | 173° |
| 2026-04-27 23:48 | 40.27958 | 43.75015 | 12870 ft | 300 kts | 173° |
| 2026-04-27 23:48 | 40.25892 | 43.75416 | 12459 ft | 299 kts | 172° |
| 2026-04-27 23:48 | 40.24531 | 43.75679 | 12186 ft | 299 kts | 172° |
| 2026-04-27 23:49 | 40.22502 | 43.76070 | 11771 ft | 290 kts | 172° |
| 2026-04-27 23:49 | 40.19908 | 43.76575 | 11283 ft | 274 kts | 172° |
| 2026-04-27 23:49 | 40.18691 | 43.76945 | 11018 ft | 268 kts | 158° |
| 2026-04-27 23:49 | 40.17116 | 43.78203 | 10774 ft | 267 kts | 136° |
| 2026-04-27 23:50 | 40.15811 | 43.80892 | 10458 ft | 268 kts | 106° |
| 2026-04-27 23:50 | 40.15567 | 43.83294 | 10220 ft | 267 kts | 93° |
| 2026-04-27 23:50 | 40.15467 | 43.85720 | 9963 ft | 267 kts | 93° |
| 2026-04-27 23:50 | 40.15366 | 43.88141 | 9583 ft | 267 kts | 93° |
| 2026-04-27 23:51 | 40.15297 | 43.89772 | 9318 ft | 267 kts | 93° |
| 2026-04-27 23:51 | 40.15196 | 43.92191 | 8915 ft | 267 kts | 93° |
| 2026-04-27 23:51 | 40.15092 | 43.94609 | 8529 ft | 266 kts | 93° |
| 2026-04-27 23:51 | 40.14986 | 43.97024 | 8137 ft | 266 kts | 93° |
| 2026-04-27 23:52 | 40.14879 | 43.99440 | 7742 ft | 266 kts | 92° |
| 2026-04-27 23:52 | 40.14771 | 44.01850 | 7365 ft | 265 kts | 92° |
| 2026-04-27 23:52 | 40.14667 | 44.04251 | 6985 ft | 264 kts | 91° |
| 2026-04-27 23:52 | 40.14607 | 44.06664 | 6489 ft | 268 kts | 90° |
| 2026-04-27 23:53 | 40.14576 | 44.09074 | 6088 ft | 266 kts | 90° |
| 2026-04-27 23:53 | 40.14544 | 44.11439 | 5935 ft | 255 kts | 89° |
| 2026-04-27 23:53 | 40.14549 | 44.13701 | 5805 ft | 243 kts | 88° |
| 2026-04-27 23:53 | 40.14568 | 44.15866 | 5701 ft | 233 kts | 88° |
| 2026-04-27 23:54 | 40.14585 | 44.17937 | 5596 ft | 223 kts | 88° |
| 2026-04-27 23:54 | 40.14600 | 44.19921 | 5448 ft | 214 kts | 88° |
| 2026-04-27 23:54 | 40.14613 | 44.21841 | 5160 ft | 205 kts | 88° |
| 2026-04-27 23:54 | 40.14627 | 44.23695 | 4893 ft | 202 kts | 88° |
| 2026-04-27 23:55 | 40.14639 | 44.25468 | 4622 ft | 188 kts | 89° |
| 2026-04-27 23:55 | 40.14648 | 44.27084 | 4374 ft | 170 kts | 89° |
| 2026-04-27 23:55 | 40.14656 | 44.28571 | 4123 ft | 158 kts | 90° |
| 2026-04-27 23:55 | 40.14660 | 44.29961 | 3926 ft | 150 kts | 90° |
| 2026-04-27 23:56 | 40.14669 | 44.31309 | 3732 ft | 146 kts | 90° |
| 2026-04-27 23:56 | 40.14681 | 44.32610 | 3535 ft | 141 kts | 90° |
| 2026-04-27 23:56 | 40.14688 | 44.33885 | 3349 ft | 139 kts | 91° |
| 2026-04-27 23:56 | 40.14702 | 44.35144 | 3179 ft | 138 kts | 89° |
| 2026-04-27 23:57 | 40.14705 | 44.36390 | 3013 ft | 137 kts | 90° |
| 2026-04-27 23:57 | 40.14716 | 44.37625 | 2861 ft | 135 kts | 90° |
| 2026-04-27 23:57 | 40.14722 | 44.38739 | 2840 ft | 106 kts | 89° |
| 2026-04-27 23:57 | 40.14726 | 44.39476 | 2839 ft | 56 kts | 90° |
| 2026-04-27 23:58 | 40.14728 | 44.39809 | 2840 ft | 22 kts | 89° |
| 2026-04-27 23:58 | 40.14738 | 44.39991 | 2842 ft | 15 kts | 62° |
| 2026-04-27 23:58 | 40.14828 | 44.40036 | 2840 ft | 14 kts | 1° |
| 2026-04-27 23:58 | 40.14886 | 44.40036 | 2840 ft | 7 kts | 1° |
| 2026-04-27 23:59 | 40.14894 | 44.40037 | 2840 ft | 0 kts | 0° |
| 2026-04-28 00:00 | 40.14928 | 44.40037 | 2840 ft | 9 kts | 2° |
| 2026-04-28 00:00 | 40.14972 | 44.40070 | 2841 ft | 7 kts | 59° |
| 2026-04-28 00:00 | 40.15001 | 44.40128 | 2841 ft | 9 kts | 17° |
| 2026-04-28 00:00 | 40.15055 | 44.40131 | 2841 ft | 6 kts | 1° |
| 2026-04-28 00:01 | 40.15065 | 44.40131 | 2841 ft | 1 kts | 1° |
| 2026-04-28 00:01 | 40.15069 | 44.40131 | 2841 ft | 0 kts | 1° |